AAL94 KJFK-LEMD
Flight info
| Callsign | AAL94 |
|---|---|
| Flight time | N/A |
| Altitude | 37000 |
| Route | BETTE DCT ACK DCT DOVEY/M083F370 DCT 41N060W 41N050W 4030N04000W 4030N03000W 4030N02000W DCT DETOX/N0476F370 DCT ADORO L155 ZMR |
| Aircraft | B772/H-SDE2E3FGHIJ5LORVWXY/LB1D1 |
Departure
| Time | 2026-04-30 10:04 |
|---|---|
| Airport | John F. Kennedy International Airport (KJFK) |
Arrival
| Time | N/A |
|---|---|
| Airport | Adolfo Suárez Madrid–Barajas Airport (LEMD) |
| Time | Latitude | Longitude | Altitude | Speed | Heading |
|---|---|---|---|---|---|
| 2026-04-30 09:29 | 40.64777 | -73.79345 | 28 ft | 0 kts | 151° |
| 2026-04-30 09:48 | 40.64787 | -73.79352 | 28 ft | 4 kts | 151° |
| 2026-04-30 09:49 | 40.64810 | -73.79369 | 27 ft | 4 kts | 151° |
| 2026-04-30 09:49 | 40.64833 | -73.79383 | 27 ft | 4 kts | 182° |
| 2026-04-30 09:49 | 40.64849 | -73.79373 | 27 ft | 1 kts | 241° |
| 2026-04-30 09:49 | 40.64861 | -73.79346 | 25 ft | 3 kts | 241° |
| 2026-04-30 09:50 | 40.64863 | -73.79341 | 25 ft | 0 kts | 241° |
| 2026-04-30 09:52 | 40.64850 | -73.79372 | 27 ft | 6 kts | 241° |
| 2026-04-30 09:52 | 40.64829 | -73.79422 | 26 ft | 6 kts | 241° |
| 2026-04-30 09:53 | 40.64807 | -73.79472 | 28 ft | 7 kts | 241° |
| 2026-04-30 09:53 | 40.64778 | -73.79543 | 28 ft | 11 kts | 240° |
| 2026-04-30 09:53 | 40.64743 | -73.79624 | 28 ft | 8 kts | 248° |
| 2026-04-30 09:53 | 40.64772 | -73.79681 | 28 ft | 8 kts | 333° |
| 2026-04-30 09:54 | 40.64837 | -73.79702 | 28 ft | 12 kts | 354° |
| 2026-04-30 09:54 | 40.64936 | -73.79703 | 28 ft | 16 kts | 1° |
| 2026-04-30 09:54 | 40.65043 | -73.79662 | 28 ft | 16 kts | 38° |
| 2026-04-30 09:54 | 40.65108 | -73.79539 | 28 ft | 16 kts | 60° |
| 2026-04-30 09:55 | 40.65165 | -73.79407 | 28 ft | 17 kts | 60° |
| 2026-04-30 09:55 | 40.65209 | -73.79270 | 28 ft | 16 kts | 85° |
| 2026-04-30 09:55 | 40.65186 | -73.79123 | 28 ft | 17 kts | 107° |
| 2026-04-30 09:55 | 40.65152 | -73.78978 | 28 ft | 17 kts | 107° |
| 2026-04-30 09:56 | 40.65138 | -73.78829 | 28 ft | 16 kts | 86° |
| 2026-04-30 09:56 | 40.65173 | -73.78689 | 28 ft | 16 kts | 60° |
| 2026-04-30 09:56 | 40.65230 | -73.78557 | 28 ft | 16 kts | 60° |
| 2026-04-30 09:56 | 40.65283 | -73.78474 | 28 ft | 11 kts | 17° |
| 2026-04-30 09:57 | 40.65351 | -73.78457 | 28 ft | 10 kts | 50° |
| 2026-04-30 09:57 | 40.65393 | -73.78378 | 29 ft | 11 kts | 56° |
| 2026-04-30 09:57 | 40.65437 | -73.78289 | 26 ft | 12 kts | 59° |
| 2026-04-30 09:57 | 40.65477 | -73.78195 | 28 ft | 12 kts | 61° |
| 2026-04-30 09:58 | 40.65483 | -73.78094 | 26 ft | 12 kts | 115° |
| 2026-04-30 09:58 | 40.65441 | -73.78001 | 26 ft | 12 kts | 121° |
| 2026-04-30 09:58 | 40.65399 | -73.77909 | 31 ft | 12 kts | 121° |
| 2026-04-30 09:58 | 40.65338 | -73.77775 | 27 ft | 21 kts | 121° |
| 2026-04-30 09:59 | 40.65188 | -73.77444 | 26 ft | 21 kts | 121° |
| 2026-04-30 09:59 | 40.65037 | -73.77111 | 31 ft | 21 kts | 121° |
| 2026-04-30 10:00 | 40.64904 | -73.76818 | 31 ft | 11 kts | 120° |
| 2026-04-30 10:00 | 40.64871 | -73.76740 | 30 ft | 9 kts | 110° |
| 2026-04-30 10:01 | 40.64969 | -73.76628 | 27 ft | 13 kts | 30° |
| 2026-04-30 10:01 | 40.65051 | -73.76564 | 29 ft | 11 kts | 30° |
| 2026-04-30 10:01 | 40.65101 | -73.76497 | 29 ft | 11 kts | 80° |
| 2026-04-30 10:02 | 40.65026 | -73.76363 | 27 ft | 9 kts | 179° |
| 2026-04-30 10:02 | 40.64972 | -73.76394 | 27 ft | 7 kts | 212° |
| 2026-04-30 10:02 | 40.64969 | -73.76397 | 27 ft | 0 kts | 211° |
| 2026-04-30 10:03 | 40.64968 | -73.76398 | 27 ft | 4 kts | 211° |
| 2026-04-30 10:03 | 40.64817 | -73.76517 | 28 ft | 55 kts | 211° |
| 2026-04-30 10:03 | 40.64289 | -73.76928 | 30 ft | 119 kts | 211° |
| 2026-04-30 10:03 | 40.63419 | -73.77612 | 56 ft | 168 kts | 210° |
| 2026-04-30 10:04 | 40.62405 | -73.78421 | 686 ft | 169 kts | 209° |
| 2026-04-30 10:04 | 40.61398 | -73.79192 | 1544 ft | 164 kts | 210° |
| 2026-04-30 10:04 | 40.60379 | -73.79960 | 1915 ft | 178 kts | 209° |
| 2026-04-30 10:04 | 40.59259 | -73.80820 | 2213 ft | 192 kts | 212° |
| 2026-04-30 10:05 | 40.58069 | -73.81778 | 2461 ft | 211 kts | 212° |
| 2026-04-30 10:05 | 40.56736 | -73.82807 | 2710 ft | 230 kts | 212° |
| 2026-04-30 10:05 | 40.55302 | -73.83860 | 3128 ft | 242 kts | 206° |
| 2026-04-30 10:05 | 40.53612 | -73.84220 | 3558 ft | 258 kts | 175° |
| 2026-04-30 10:06 | 40.51900 | -73.83386 | 4140 ft | 271 kts | 148° |
| 2026-04-30 10:06 | 40.50587 | -73.81582 | 4746 ft | 280 kts | 120° |
| 2026-04-30 10:06 | 40.50060 | -73.79128 | 5371 ft | 283 kts | 91° |
| 2026-04-30 10:06 | 40.50202 | -73.76540 | 5851 ft | 288 kts | 85° |
| 2026-04-30 10:07 | 40.50416 | -73.73897 | 6421 ft | 293 kts | 85° |
| 2026-04-30 10:07 | 40.50639 | -73.71226 | 7055 ft | 295 kts | 85° |
| 2026-04-30 10:07 | 40.50864 | -73.68533 | 7660 ft | 298 kts | 85° |
| 2026-04-30 10:07 | 40.51088 | -73.65809 | 8225 ft | 302 kts | 86° |
| 2026-04-30 10:08 | 40.51236 | -73.63988 | 8572 ft | 305 kts | 86° |
| 2026-04-30 10:08 | 40.51458 | -73.61196 | 9119 ft | 309 kts | 86° |
| 2026-04-30 10:08 | 40.51679 | -73.58375 | 9715 ft | 312 kts | 87° |
| 2026-04-30 10:08 | 40.51898 | -73.55549 | 10226 ft | 317 kts | 87° |
| 2026-04-30 10:09 | 40.52125 | -73.52556 | 10359 ft | 336 kts | 87° |
| 2026-04-30 10:09 | 40.52441 | -73.48352 | 10566 ft | 362 kts | 86° |
| 2026-04-30 10:09 | 40.52610 | -73.46100 | 10780 ft | 371 kts | 86° |
| 2026-04-30 10:09 | 40.52867 | -73.42680 | 11249 ft | 381 kts | 86° |
| 2026-04-30 10:10 | 40.53129 | -73.39188 | 11815 ft | 387 kts | 86° |
| 2026-04-30 10:10 | 40.53394 | -73.35654 | 12496 ft | 391 kts | 86° |
| 2026-04-30 10:10 | 40.53660 | -73.32074 | 13151 ft | 396 kts | 86° |
| 2026-04-30 10:10 | 40.53928 | -73.28452 | 13766 ft | 401 kts | 86° |
| 2026-04-30 10:11 | 40.54196 | -73.24793 | 14388 ft | 405 kts | 86° |
| 2026-04-30 10:11 | 40.54467 | -73.21091 | 15037 ft | 408 kts | 86° |
| 2026-04-30 10:11 | 40.54738 | -73.17365 | 15681 ft | 412 kts | 86° |
| 2026-04-30 10:11 | 40.55011 | -73.13594 | 16329 ft | 416 kts | 86° |
| 2026-04-30 10:12 | 40.55286 | -73.09788 | 16970 ft | 420 kts | 87° |
| 2026-04-30 10:12 | 40.55561 | -73.05946 | 17619 ft | 424 kts | 87° |
| 2026-04-30 10:12 | 40.55920 | -73.02076 | 18260 ft | 430 kts | 82° |
| 2026-04-30 10:12 | 40.56590 | -72.98222 | 18840 ft | 435 kts | 74° |
| 2026-04-30 10:13 | 40.57538 | -72.94482 | 19414 ft | 438 kts | 71° |
| 2026-04-30 10:13 | 40.58535 | -72.90684 | 20082 ft | 440 kts | 71° |
| 2026-04-30 10:13 | 40.59540 | -72.86864 | 20743 ft | 444 kts | 71° |
| 2026-04-30 10:13 | 40.60550 | -72.83001 | 21341 ft | 448 kts | 71° |
| 2026-04-30 10:14 | 40.61561 | -72.79101 | 21933 ft | 453 kts | 71° |
| 2026-04-30 10:14 | 40.62577 | -72.75153 | 22578 ft | 457 kts | 71° |
| 2026-04-30 10:14 | 40.64624 | -72.67135 | 23765 ft | 467 kts | 71° |
| 2026-04-30 10:15 | 40.65657 | -72.63067 | 24296 ft | 470 kts | 71° |
| 2026-04-30 10:15 | 40.66697 | -72.58963 | 24837 ft | 474 kts | 71° |
| 2026-04-30 10:15 | 40.67731 | -72.54873 | 25366 ft | 476 kts | 71° |
| 2026-04-30 10:15 | 40.68790 | -72.50684 | 25874 ft | 480 kts | 71° |
| 2026-04-30 10:16 | 40.69845 | -72.46502 | 26336 ft | 484 kts | 71° |
| 2026-04-30 10:16 | 40.70910 | -72.42274 | 26785 ft | 487 kts | 71° |
| 2026-04-30 10:16 | 40.71979 | -72.38025 | 27256 ft | 491 kts | 71° |
| 2026-04-30 10:17 | 40.74138 | -72.29418 | 28144 ft | 498 kts | 71° |
| 2026-04-30 10:17 | 40.76313 | -72.20709 | 29074 ft | 501 kts | 71° |
| 2026-04-30 10:17 | 40.77401 | -72.16339 | 29579 ft | 502 kts | 71° |
| 2026-04-30 10:18 | 40.78495 | -72.11939 | 29952 ft | 506 kts | 71° |
| 2026-04-30 10:18 | 40.79590 | -72.07529 | 30399 ft | 506 kts | 71° |
| 2026-04-30 10:18 | 40.80682 | -72.03121 | 30835 ft | 505 kts | 71° |
| 2026-04-30 10:19 | 40.82879 | -71.94228 | 31293 ft | 514 kts | 72° |
| 2026-04-30 10:19 | 40.83987 | -71.89731 | 31516 ft | 517 kts | 72° |
| 2026-04-30 10:19 | 40.85097 | -71.85215 | 31817 ft | 518 kts | 72° |
| 2026-04-30 10:19 | 40.86209 | -71.80684 | 32080 ft | 519 kts | 72° |
| 2026-04-30 10:20 | 40.87323 | -71.76138 | 32281 ft | 522 kts | 72° |
| 2026-04-30 10:20 | 40.89562 | -71.66967 | 32750 ft | 526 kts | 72° |
| 2026-04-30 10:20 | 40.90683 | -71.62364 | 33057 ft | 525 kts | 72° |
| 2026-04-30 10:21 | 40.91800 | -71.57771 | 33466 ft | 523 kts | 72° |
| 2026-04-30 10:21 | 40.92901 | -71.53234 | 34138 ft | 513 kts | 73° |
| 2026-04-30 10:21 | 40.93983 | -71.48767 | 34545 ft | 511 kts | 73° |
| 2026-04-30 10:21 | 40.95067 | -71.44277 | 34733 ft | 513 kts | 73° |
| 2026-04-30 10:22 | 40.96154 | -71.39768 | 34883 ft | 516 kts | 73° |
| 2026-04-30 10:22 | 40.97245 | -71.35230 | 35057 ft | 518 kts | 72° |
| 2026-04-30 10:22 | 40.98338 | -71.30678 | 35279 ft | 519 kts | 72° |
| 2026-04-30 10:22 | 40.99428 | -71.26131 | 35516 ft | 519 kts | 72° |
| 2026-04-30 10:23 | 41.00520 | -71.21570 | 35767 ft | 519 kts | 72° |
| 2026-04-30 10:23 | 41.01610 | -71.17005 | 35985 ft | 520 kts | 72° |
| 2026-04-30 10:23 | 41.02698 | -71.12440 | 36201 ft | 521 kts | 72° |
| 2026-04-30 10:23 | 41.03787 | -71.07862 | 36444 ft | 521 kts | 73° |
| 2026-04-30 10:24 | 41.04871 | -71.03298 | 36757 ft | 519 kts | 73° |
| 2026-04-30 10:24 | 41.05957 | -70.98714 | 36816 ft | 523 kts | 73° |
| 2026-04-30 10:24 | 41.08130 | -70.89510 | 36853 ft | 522 kts | 73° |
| 2026-04-30 10:25 | 41.10279 | -70.80372 | 36855 ft | 518 kts | 73° |
| 2026-04-30 10:25 | 41.12413 | -70.71263 | 36866 ft | 517 kts | 73° |
| 2026-04-30 10:26 | 41.14542 | -70.62141 | 36864 ft | 518 kts | 73° |
| 2026-04-30 10:26 | 41.16665 | -70.53003 | 36847 ft | 518 kts | 73° |
| 2026-04-30 10:27 | 41.18768 | -70.43918 | 36862 ft | 518 kts | 73° |
| 2026-04-30 10:27 | 41.20879 | -70.34761 | 36863 ft | 518 kts | 73° |
| 2026-04-30 10:28 | 41.22982 | -70.25600 | 36859 ft | 519 kts | 73° |
| 2026-04-30 10:28 | 41.25077 | -70.16437 | 36853 ft | 518 kts | 73° |
| 2026-04-30 10:29 | 41.27064 | -70.07280 | 36863 ft | 515 kts | 78° |
| 2026-04-30 10:29 | 41.27938 | -69.97873 | 36861 ft | 510 kts | 89° |
| 2026-04-30 10:30 | 41.27690 | -69.88495 | 36867 ft | 507 kts | 95° |
| 2026-04-30 10:30 | 41.27227 | -69.79153 | 36860 ft | 506 kts | 95° |
| 2026-04-30 10:31 | 41.26784 | -69.69831 | 36870 ft | 506 kts | 95° |
| 2026-04-30 10:31 | 41.26362 | -69.60501 | 36866 ft | 506 kts | 95° |
| 2026-04-30 10:32 | 41.25940 | -69.51149 | 36851 ft | 506 kts | 95° |
| 2026-04-30 10:32 | 41.25513 | -69.41826 | 36864 ft | 505 kts | 95° |
| 2026-04-30 10:33 | 41.25076 | -69.32505 | 36873 ft | 505 kts | 95° |
| 2026-04-30 10:33 | 41.24630 | -69.23185 | 36883 ft | 505 kts | 95° |
| 2026-04-30 10:34 | 41.24177 | -69.13863 | 36866 ft | 506 kts | 95° |
| 2026-04-30 10:34 | 41.23716 | -69.04534 | 36868 ft | 505 kts | 95° |
| 2026-04-30 10:35 | 41.23249 | -68.95237 | 36882 ft | 505 kts | 95° |
| 2026-04-30 10:35 | 41.22774 | -68.85935 | 36881 ft | 505 kts | 95° |
| 2026-04-30 10:36 | 41.22291 | -68.76621 | 36869 ft | 505 kts | 95° |
| 2026-04-30 10:36 | 41.21802 | -68.67325 | 36878 ft | 504 kts | 95° |
| 2026-04-30 10:37 | 41.21307 | -68.58054 | 36875 ft | 503 kts | 96° |
| 2026-04-30 10:37 | 41.20803 | -68.48775 | 36869 ft | 503 kts | 96° |
| 2026-04-30 10:38 | 41.20293 | -68.39515 | 36874 ft | 503 kts | 96° |
| 2026-04-30 10:38 | 41.19775 | -68.30255 | 36875 ft | 503 kts | 96° |
| 2026-04-30 10:39 | 41.19250 | -68.20996 | 36877 ft | 503 kts | 96° |
| 2026-04-30 10:39 | 41.18716 | -68.11718 | 36869 ft | 504 kts | 96° |
| 2026-04-30 10:40 | 41.18176 | -68.02449 | 36872 ft | 504 kts | 96° |
| 2026-04-30 10:40 | 41.17627 | -67.93164 | 36891 ft | 505 kts | 96° |
| 2026-04-30 10:41 | 41.17070 | -67.83874 | 36886 ft | 505 kts | 96° |
| 2026-04-30 10:41 | 41.16509 | -67.74650 | 36895 ft | 505 kts | 96° |
| 2026-04-30 10:42 | 41.15937 | -67.65365 | 36885 ft | 505 kts | 96° |
| 2026-04-30 10:42 | 41.15359 | -67.56085 | 36880 ft | 504 kts | 96° |
| 2026-04-30 10:43 | 41.14773 | -67.46812 | 36899 ft | 504 kts | 96° |
| 2026-04-30 10:43 | 41.14180 | -67.37551 | 36893 ft | 504 kts | 96° |
| 2026-04-30 10:44 | 41.13579 | -67.28282 | 36901 ft | 504 kts | 96° |
| 2026-04-30 10:44 | 41.12972 | -67.19027 | 36886 ft | 503 kts | 96° |
| 2026-04-30 10:45 | 41.12359 | -67.09797 | 36900 ft | 502 kts | 96° |
| 2026-04-30 10:45 | 41.11750 | -67.00569 | 36897 ft | 502 kts | 95° |
| 2026-04-30 10:46 | 41.11724 | -66.91298 | 36904 ft | 503 kts | 90° |
| 2026-04-30 10:46 | 41.11889 | -66.82017 | 36900 ft | 504 kts | 90° |
| 2026-04-30 10:47 | 41.12032 | -66.72734 | 36906 ft | 504 kts | 90° |
| 2026-04-30 10:47 | 41.12141 | -66.63435 | 36907 ft | 504 kts | 90° |
| 2026-04-30 10:48 | 41.12233 | -66.54128 | 36900 ft | 505 kts | 90° |
| 2026-04-30 10:48 | 41.12316 | -66.44812 | 36908 ft | 505 kts | 90° |
| 2026-04-30 10:49 | 41.12393 | -66.35495 | 36911 ft | 506 kts | 90° |
| 2026-04-30 10:49 | 41.12464 | -66.26171 | 36918 ft | 505 kts | 91° |
| 2026-04-30 10:50 | 41.12527 | -66.16873 | 36905 ft | 504 kts | 91° |
| 2026-04-30 10:50 | 41.12583 | -66.07593 | 36917 ft | 503 kts | 91° |
| 2026-04-30 10:51 | 41.12631 | -65.98321 | 36918 ft | 502 kts | 91° |
| 2026-04-30 10:51 | 41.12671 | -65.89063 | 36905 ft | 503 kts | 91° |
| 2026-04-30 10:52 | 41.12704 | -65.79780 | 36923 ft | 504 kts | 91° |
| 2026-04-30 10:52 | 41.12730 | -65.70536 | 36927 ft | 506 kts | 91° |
| 2026-04-30 10:53 | 41.12749 | -65.61197 | 36941 ft | 507 kts | 91° |
| 2026-04-30 10:53 | 41.12760 | -65.51812 | 36921 ft | 510 kts | 91° |
| 2026-04-30 10:54 | 41.12763 | -65.43924 | 36932 ft | 510 kts | 91° |
| 2026-04-30 10:54 | 41.12760 | -65.34527 | 36930 ft | 510 kts | 91° |
| 2026-04-30 10:55 | 41.12749 | -65.25126 | 36921 ft | 509 kts | 91° |
| 2026-04-30 10:55 | 41.12731 | -65.15719 | 36934 ft | 510 kts | 91° |
| 2026-04-30 10:56 | 41.12705 | -65.06318 | 36935 ft | 510 kts | 91° |
| 2026-04-30 10:56 | 41.12672 | -64.96973 | 36933 ft | 510 kts | 91° |
| 2026-04-30 10:57 | 41.12631 | -64.87595 | 36939 ft | 508 kts | 91° |
| 2026-04-30 10:57 | 41.12582 | -64.78228 | 36938 ft | 507 kts | 91° |
| 2026-04-30 10:58 | 41.12526 | -64.68880 | 36945 ft | 506 kts | 91° |
| 2026-04-30 10:58 | 41.12462 | -64.59542 | 36948 ft | 506 kts | 92° |
| 2026-04-30 10:59 | 41.12391 | -64.50209 | 36954 ft | 506 kts | 92° |
| 2026-04-30 10:59 | 41.12312 | -64.40874 | 36949 ft | 506 kts | 92° |
| 2026-04-30 11:00 | 41.12226 | -64.31532 | 36943 ft | 506 kts | 92° |
| 2026-04-30 11:00 | 41.12132 | -64.22189 | 36958 ft | 507 kts | 92° |
| 2026-04-30 11:01 | 41.12030 | -64.12835 | 36958 ft | 508 kts | 92° |
| 2026-04-30 11:01 | 41.11921 | -64.03469 | 36945 ft | 508 kts | 92° |
| 2026-04-30 11:02 | 41.11804 | -63.94097 | 36962 ft | 508 kts | 92° |
| 2026-04-30 11:02 | 41.11679 | -63.84716 | 36966 ft | 509 kts | 92° |
| 2026-04-30 11:03 | 41.11547 | -63.75333 | 36961 ft | 509 kts | 92° |
| 2026-04-30 11:04 | 41.11334 | -63.61253 | 36972 ft | 508 kts | 92° |
| 2026-04-30 11:04 | 41.11183 | -63.51889 | 36971 ft | 508 kts | 92° |
| 2026-04-30 11:05 | 41.11025 | -63.42530 | 36959 ft | 507 kts | 92° |
| 2026-04-30 11:05 | 41.10859 | -63.33179 | 36977 ft | 507 kts | 92° |
| 2026-04-30 11:06 | 41.10685 | -63.23834 | 36980 ft | 508 kts | 92° |
| 2026-04-30 11:06 | 41.10504 | -63.14467 | 36977 ft | 508 kts | 92° |
| 2026-04-30 11:07 | 41.10315 | -63.05102 | 36993 ft | 508 kts | 92° |
| 2026-04-30 11:07 | 41.10118 | -62.95734 | 36981 ft | 509 kts | 92° |
| 2026-04-30 11:08 | 41.09914 | -62.86358 | 37004 ft | 508 kts | 92° |
| 2026-04-30 11:08 | 41.09702 | -62.76996 | 36979 ft | 508 kts | 92° |
| 2026-04-30 11:09 | 41.09483 | -62.67639 | 36990 ft | 508 kts | 92° |
| 2026-04-30 11:09 | 41.09256 | -62.58283 | 36983 ft | 507 kts | 92° |
| 2026-04-30 11:10 | 41.09022 | -62.48937 | 36985 ft | 507 kts | 92° |
| 2026-04-30 11:10 | 41.08780 | -62.39595 | 36997 ft | 507 kts | 92° |
| 2026-04-30 11:11 | 41.08533 | -62.30310 | 36996 ft | 508 kts | 92° |
| 2026-04-30 11:11 | 41.08276 | -62.20958 | 36994 ft | 508 kts | 92° |
| 2026-04-30 11:12 | 41.08011 | -62.11602 | 37007 ft | 508 kts | 92° |
| 2026-04-30 11:12 | 41.07739 | -62.02242 | 37011 ft | 508 kts | 92° |
| 2026-04-30 11:13 | 41.07459 | -61.92886 | 36997 ft | 508 kts | 92° |
| 2026-04-30 11:13 | 41.07172 | -61.83526 | 36999 ft | 508 kts | 92° |
| 2026-04-30 11:14 | 41.06877 | -61.74176 | 36999 ft | 508 kts | 92° |
| 2026-04-30 11:14 | 41.06575 | -61.64822 | 37009 ft | 508 kts | 92° |
| 2026-04-30 11:15 | 41.06265 | -61.55470 | 37006 ft | 508 kts | 92° |
| 2026-04-30 11:15 | 41.05947 | -61.46123 | 37001 ft | 508 kts | 92° |
| 2026-04-30 11:16 | 41.05622 | -61.36773 | 37015 ft | 508 kts | 93° |
| 2026-04-30 11:16 | 41.05289 | -61.27425 | 37001 ft | 508 kts | 92° |
| 2026-04-30 11:17 | 41.04949 | -61.18080 | 37008 ft | 508 kts | 93° |
| 2026-04-30 11:17 | 41.04602 | -61.08731 | 37009 ft | 508 kts | 93° |
| 2026-04-30 11:18 | 41.04246 | -60.99374 | 37001 ft | 508 kts | 93° |
| 2026-04-30 11:18 | 41.03698 | -60.85345 | 37011 ft | 508 kts | 93° |
| 2026-04-30 11:19 | 41.03324 | -60.75994 | 37010 ft | 508 kts | 93° |
| 2026-04-30 11:19 | 41.02942 | -60.66643 | 37012 ft | 508 kts | 93° |
| 2026-04-30 11:20 | 41.02552 | -60.57300 | 37009 ft | 508 kts | 93° |
| 2026-04-30 11:20 | 41.02156 | -60.47959 | 37008 ft | 508 kts | 93° |
| 2026-04-30 11:21 | 41.01752 | -60.38627 | 37013 ft | 508 kts | 93° |
| 2026-04-30 11:21 | 41.01343 | -60.29362 | 37010 ft | 507 kts | 93° |
| 2026-04-30 11:22 | 41.00924 | -60.20034 | 37010 ft | 507 kts | 93° |
| 2026-04-30 11:22 | 41.00499 | -60.10720 | 37015 ft | 507 kts | 93° |
| 2026-04-30 11:23 | 41.00072 | -60.01401 | 37012 ft | 507 kts | 92° |
| 2026-04-30 11:24 | 41.00459 | -59.87430 | 37014 ft | 506 kts | 85° |
| 2026-04-30 11:24 | 41.00901 | -59.78120 | 37017 ft | 507 kts | 85° |
| 2026-04-30 11:25 | 41.01500 | -59.64143 | 37015 ft | 507 kts | 86° |
| 2026-04-30 11:26 | 41.02230 | -59.45510 | 37019 ft | 506 kts | 86° |
| 2026-04-30 11:26 | 41.02584 | -59.36209 | 37023 ft | 506 kts | 86° |
| 2026-04-30 11:27 | 41.02931 | -59.26909 | 37020 ft | 505 kts | 86° |
| 2026-04-30 11:27 | 41.03270 | -59.17630 | 37019 ft | 504 kts | 86° |
| 2026-04-30 11:28 | 41.03765 | -59.03741 | 37077 ft | 504 kts | 86° |
| 2026-04-30 11:28 | 41.03926 | -58.99097 | 37330 ft | 504 kts | 86° |
| 2026-04-30 11:29 | 41.04085 | -58.94468 | 37652 ft | 502 kts | 86° |
| 2026-04-30 11:29 | 41.04241 | -58.89863 | 37959 ft | 500 kts | 87° |
| 2026-04-30 11:29 | 41.04546 | -58.80722 | 38629 ft | 496 kts | 87° |
| 2026-04-30 11:30 | 41.04842 | -58.71644 | 38893 ft | 498 kts | 87° |
| 2026-04-30 11:30 | 41.04989 | -58.67058 | 38953 ft | 499 kts | 87° |
| 2026-04-30 11:31 | 41.05278 | -58.57842 | 39024 ft | 500 kts | 87° |
| 2026-04-30 11:31 | 41.05558 | -58.48680 | 39013 ft | 496 kts | 88° |
| 2026-04-30 11:32 | 41.05829 | -58.39576 | 39016 ft | 494 kts | 88° |
| 2026-04-30 11:32 | 41.06093 | -58.30487 | 39022 ft | 493 kts | 88° |
| 2026-04-30 11:33 | 41.06475 | -58.16844 | 39029 ft | 495 kts | 88° |
| 2026-04-30 11:33 | 41.06721 | -58.07724 | 39028 ft | 496 kts | 88° |
| 2026-04-30 11:34 | 41.06961 | -57.98590 | 39033 ft | 497 kts | 88° |
| 2026-04-30 11:34 | 41.07194 | -57.89440 | 39026 ft | 497 kts | 88° |
| 2026-04-30 11:35 | 41.07419 | -57.80282 | 39020 ft | 497 kts | 88° |
| 2026-04-30 11:35 | 41.07638 | -57.71129 | 39022 ft | 496 kts | 89° |
| 2026-04-30 11:36 | 41.07848 | -57.61997 | 39028 ft | 495 kts | 89° |
| 2026-04-30 11:36 | 41.08051 | -57.52877 | 39030 ft | 495 kts | 89° |
| 2026-04-30 11:37 | 41.08247 | -57.43762 | 39032 ft | 495 kts | 89° |
| 2026-04-30 11:37 | 41.08436 | -57.34651 | 39033 ft | 494 kts | 89° |
| 2026-04-30 11:38 | 41.08617 | -57.25554 | 39027 ft | 493 kts | 89° |
| 2026-04-30 11:38 | 41.08762 | -57.17999 | 39031 ft | 493 kts | 89° |
| 2026-04-30 11:39 | 41.08929 | -57.08923 | 39034 ft | 493 kts | 89° |
| 2026-04-30 11:39 | 41.09090 | -56.99847 | 39034 ft | 493 kts | 90° |
| 2026-04-30 11:40 | 41.09243 | -56.90771 | 39039 ft | 493 kts | 90° |
| 2026-04-30 11:40 | 41.09390 | -56.81683 | 39041 ft | 493 kts | 90° |
| 2026-04-30 11:41 | 41.09529 | -56.72602 | 39041 ft | 492 kts | 90° |
| 2026-04-30 11:41 | 41.09660 | -56.63531 | 39042 ft | 492 kts | 90° |
| 2026-04-30 11:42 | 41.09785 | -56.54460 | 39044 ft | 492 kts | 90° |
| 2026-04-30 11:42 | 41.09903 | -56.45388 | 39044 ft | 492 kts | 90° |
| 2026-04-30 11:43 | 41.10014 | -56.36303 | 39040 ft | 493 kts | 90° |
| 2026-04-30 11:43 | 41.10117 | -56.27217 | 39045 ft | 494 kts | 90° |
| 2026-04-30 11:44 | 41.10214 | -56.18105 | 39046 ft | 494 kts | 90° |
| 2026-04-30 11:44 | 41.10303 | -56.09004 | 39047 ft | 493 kts | 90° |
| 2026-04-30 11:45 | 41.10385 | -55.99909 | 39043 ft | 493 kts | 90° |
| 2026-04-30 11:45 | 41.10460 | -55.90815 | 39049 ft | 493 kts | 90° |
| 2026-04-30 11:46 | 41.10528 | -55.81716 | 39049 ft | 494 kts | 90° |
| 2026-04-30 11:46 | 41.10589 | -55.72606 | 39051 ft | 494 kts | 90° |
| 2026-04-30 11:47 | 41.10642 | -55.63503 | 39055 ft | 494 kts | 89° |
| 2026-04-30 11:47 | 41.10689 | -55.54399 | 39048 ft | 494 kts | 89° |
| 2026-04-30 11:48 | 41.10728 | -55.45292 | 39052 ft | 494 kts | 89° |
| 2026-04-30 11:48 | 41.10760 | -55.36190 | 39058 ft | 494 kts | 89° |
| 2026-04-30 11:49 | 41.10785 | -55.27074 | 39059 ft | 494 kts | 89° |
| 2026-04-30 11:49 | 41.10802 | -55.18024 | 39065 ft | 494 kts | 89° |
| 2026-04-30 11:50 | 41.10813 | -55.08913 | 39058 ft | 494 kts | 89° |
| 2026-04-30 11:50 | 41.10817 | -54.99742 | 39058 ft | 494 kts | 89° |
| 2026-04-30 11:51 | 41.10813 | -54.90624 | 39056 ft | 495 kts | 89° |
| 2026-04-30 11:51 | 41.10802 | -54.81495 | 39058 ft | 496 kts | 89° |
| 2026-04-30 11:52 | 41.10784 | -54.72421 | 39060 ft | 495 kts | 88° |
| 2026-04-30 11:52 | 41.10758 | -54.63293 | 39063 ft | 495 kts | 90° |
| 2026-04-30 11:53 | 41.10726 | -54.54160 | 39070 ft | 494 kts | 89° |
| 2026-04-30 11:53 | 41.10686 | -54.45044 | 39064 ft | 494 kts | 89° |
| 2026-04-30 11:54 | 41.10639 | -54.35944 | 39059 ft | 494 kts | 88° |
| 2026-04-30 11:54 | 41.10586 | -54.26843 | 39062 ft | 494 kts | 89° |
| 2026-04-30 11:55 | 41.10525 | -54.17728 | 39060 ft | 495 kts | 89° |
| 2026-04-30 11:55 | 41.10456 | -54.08611 | 39057 ft | 494 kts | 88° |
| 2026-04-30 11:56 | 41.10380 | -53.99499 | 39070 ft | 494 kts | 90° |
| 2026-04-30 11:56 | 41.10297 | -53.90370 | 39072 ft | 494 kts | 89° |
| 2026-04-30 11:57 | 41.10207 | -53.81271 | 39069 ft | 494 kts | 89° |
| 2026-04-30 11:57 | 41.10111 | -53.72181 | 39068 ft | 492 kts | 89° |
| 2026-04-30 11:58 | 41.10007 | -53.63112 | 39061 ft | 493 kts | 90° |
| 2026-04-30 11:58 | 41.09895 | -53.54036 | 39068 ft | 493 kts | 89° |
| 2026-04-30 11:59 | 41.09776 | -53.44957 | 39069 ft | 493 kts | 89° |
| 2026-04-30 11:59 | 41.09653 | -53.35864 | 39081 ft | 493 kts | 90° |
| 2026-04-30 12:00 | 41.09520 | -53.26764 | 39079 ft | 493 kts | 90° |
| 2026-04-30 12:00 | 41.09380 | -53.17665 | 39071 ft | 494 kts | 90° |
| 2026-04-30 12:01 | 41.09232 | -53.08567 | 39070 ft | 494 kts | 90° |
| 2026-04-30 12:01 | 41.09077 | -52.99460 | 39072 ft | 495 kts | 90° |
| 2026-04-30 12:02 | 41.08916 | -52.90346 | 39073 ft | 495 kts | 90° |
| 2026-04-30 12:02 | 41.08747 | -52.81212 | 39076 ft | 495 kts | 90° |
| 2026-04-30 12:03 | 41.08480 | -52.67534 | 39076 ft | 495 kts | 90° |
| 2026-04-30 12:04 | 41.08293 | -52.58410 | 39074 ft | 495 kts | 91° |
| 2026-04-30 12:04 | 41.08100 | -52.49357 | 39078 ft | 494 kts | 90° |
| 2026-04-30 12:05 | 41.07899 | -52.40256 | 39081 ft | 494 kts | 91° |
| 2026-04-30 12:05 | 41.07691 | -52.31143 | 39078 ft | 495 kts | 91° |
| 2026-04-30 12:06 | 41.07475 | -52.22024 | 39066 ft | 495 kts | 91° |
| 2026-04-30 12:06 | 41.07252 | -52.12909 | 39077 ft | 495 kts | 91° |
| 2026-04-30 12:07 | 41.07022 | -52.03795 | 39078 ft | 495 kts | 91° |
| 2026-04-30 12:07 | 41.06785 | -51.94683 | 39087 ft | 495 kts | 91° |
| 2026-04-30 12:08 | 41.06541 | -51.85569 | 39078 ft | 495 kts | 91° |
| 2026-04-30 12:08 | 41.06290 | -51.76472 | 39076 ft | 494 kts | 91° |
| 2026-04-30 12:09 | 41.06032 | -51.67386 | 39075 ft | 494 kts | 91° |
| 2026-04-30 12:09 | 41.05766 | -51.58289 | 39088 ft | 494 kts | 91° |
| 2026-04-30 12:10 | 41.05493 | -51.49184 | 39087 ft | 494 kts | 91° |
| 2026-04-30 12:10 | 41.05214 | -51.40087 | 39082 ft | 494 kts | 91° |
| 2026-04-30 12:11 | 41.04927 | -51.31006 | 39077 ft | 493 kts | 91° |
| 2026-04-30 12:11 | 41.04633 | -51.21922 | 39076 ft | 494 kts | 92° |
| 2026-04-30 12:12 | 41.04333 | -51.12838 | 39075 ft | 493 kts | 92° |
| 2026-04-30 12:12 | 41.04025 | -51.03777 | 39089 ft | 492 kts | 91° |
| 2026-04-30 12:13 | 41.03711 | -50.94719 | 39074 ft | 492 kts | 92° |
| 2026-04-30 12:13 | 41.03390 | -50.85662 | 39077 ft | 492 kts | 92° |
| 2026-04-30 12:14 | 41.03064 | -50.76677 | 39084 ft | 492 kts | 92° |
| 2026-04-30 12:14 | 41.02728 | -50.67615 | 39081 ft | 493 kts | 92° |
| 2026-04-30 12:15 | 41.02385 | -50.58548 | 39089 ft | 493 kts | 92° |
| 2026-04-30 12:15 | 41.02035 | -50.49472 | 39089 ft | 493 kts | 92° |
| 2026-04-30 12:16 | 41.01677 | -50.40401 | 39085 ft | 494 kts | 92° |
| 2026-04-30 12:16 | 41.01313 | -50.31321 | 39087 ft | 493 kts | 92° |
| 2026-04-30 12:17 | 41.00753 | -50.17727 | 39085 ft | 492 kts | 92° |
| 2026-04-30 12:17 | 41.00372 | -50.08686 | 39089 ft | 492 kts | 92° |
| 2026-04-30 12:18 | 40.99986 | -49.99657 | 39086 ft | 491 kts | 92° |
| 2026-04-30 12:18 | 40.99809 | -49.90626 | 39089 ft | 491 kts | 89° |
| 2026-04-30 12:19 | 40.99801 | -49.81593 | 39093 ft | 491 kts | 89° |
| 2026-04-30 12:19 | 40.99776 | -49.72619 | 39089 ft | 491 kts | 89° |
| 2026-04-30 12:20 | 40.99708 | -49.63588 | 39091 ft | 491 kts | 90° |
| 2026-04-30 12:20 | 40.99615 | -49.54541 | 39090 ft | 491 kts | 90° |
| 2026-04-30 12:21 | 40.99514 | -49.45502 | 39086 ft | 492 kts | 89° |
| 2026-04-30 12:21 | 40.99407 | -49.36441 | 39093 ft | 493 kts | 90° |
| 2026-04-30 12:22 | 40.99294 | -49.27365 | 39093 ft | 493 kts | 90° |
| 2026-04-30 12:22 | 40.99174 | -49.18287 | 39093 ft | 494 kts | 90° |
| 2026-04-30 12:23 | 40.99046 | -49.09190 | 39091 ft | 494 kts | 90° |
| 2026-04-30 12:23 | 40.98912 | -49.00111 | 39084 ft | 494 kts | 90° |
| 2026-04-30 12:24 | 40.98771 | -48.91092 | 39081 ft | 493 kts | 90° |
| 2026-04-30 12:24 | 40.98622 | -48.82020 | 39092 ft | 493 kts | 90° |
| 2026-04-30 12:25 | 40.98467 | -48.72943 | 39093 ft | 494 kts | 90° |
| 2026-04-30 12:25 | 40.98304 | -48.63859 | 39098 ft | 493 kts | 90° |
| 2026-04-30 12:26 | 40.98163 | -48.56308 | 39096 ft | 493 kts | 90° |
| 2026-04-30 12:26 | 40.97987 | -48.47233 | 39089 ft | 493 kts | 90° |
| 2026-04-30 12:27 | 40.97804 | -48.38167 | 39094 ft | 493 kts | 90° |
| 2026-04-30 12:27 | 40.97614 | -48.29086 | 39099 ft | 494 kts | 90° |
| 2026-04-30 12:28 | 40.97417 | -48.19988 | 39100 ft | 494 kts | 90° |
| 2026-04-30 12:28 | 40.97212 | -48.10888 | 39097 ft | 495 kts | 91° |
| 2026-04-30 12:29 | 40.97000 | -48.01798 | 39087 ft | 494 kts | 90° |
| 2026-04-30 12:29 | 40.96780 | -47.92715 | 39093 ft | 494 kts | 91° |
| 2026-04-30 12:30 | 40.96555 | -47.83640 | 39095 ft | 494 kts | 91° |
| 2026-04-30 12:30 | 40.96323 | -47.74568 | 39103 ft | 494 kts | 91° |
| 2026-04-30 12:31 | 40.96082 | -47.65482 | 39102 ft | 494 kts | 91° |
| 2026-04-30 12:31 | 40.95834 | -47.56394 | 39100 ft | 495 kts | 91° |
| 2026-04-30 12:32 | 40.95580 | -47.47298 | 39092 ft | 495 kts | 91° |
| 2026-04-30 12:32 | 40.95318 | -47.38207 | 39097 ft | 495 kts | 91° |
| 2026-04-30 12:33 | 40.95048 | -47.29117 | 39097 ft | 495 kts | 91° |
| 2026-04-30 12:33 | 40.94772 | -47.20018 | 39100 ft | 495 kts | 92° |
| 2026-04-30 12:34 | 40.94488 | -47.10913 | 39105 ft | 495 kts | 92° |
| 2026-04-30 12:34 | 40.94196 | -47.01803 | 39093 ft | 496 kts | 91° |
| 2026-04-30 12:35 | 40.93898 | -46.92704 | 39086 ft | 495 kts | 92° |
| 2026-04-30 12:35 | 40.93596 | -46.83680 | 39092 ft | 495 kts | 92° |
| 2026-04-30 12:36 | 40.93283 | -46.74576 | 39106 ft | 496 kts | 92° |
| 2026-04-30 12:36 | 40.92963 | -46.65463 | 39109 ft | 496 kts | 92° |
| 2026-04-30 12:37 | 40.92635 | -46.56325 | 39109 ft | 497 kts | 92° |
| 2026-04-30 12:37 | 40.92299 | -46.47185 | 39098 ft | 498 kts | 92° |
| 2026-04-30 12:38 | 40.91956 | -46.38044 | 39086 ft | 498 kts | 92° |
| 2026-04-30 12:38 | 40.91607 | -46.28912 | 39091 ft | 497 kts | 92° |
| 2026-04-30 12:39 | 40.91250 | -46.19786 | 39104 ft | 497 kts | 92° |
| 2026-04-30 12:39 | 40.90886 | -46.10656 | 39116 ft | 498 kts | 92° |
| 2026-04-30 12:40 | 40.90514 | -46.01507 | 39101 ft | 499 kts | 93° |
| 2026-04-30 12:40 | 40.90135 | -45.92360 | 39096 ft | 499 kts | 93° |
| 2026-04-30 12:41 | 40.89749 | -45.83218 | 39099 ft | 498 kts | 93° |
| 2026-04-30 12:41 | 40.89355 | -45.74089 | 39098 ft | 498 kts | 93° |
| 2026-04-30 12:42 | 40.88954 | -45.64945 | 39110 ft | 498 kts | 93° |
| 2026-04-30 12:42 | 40.88546 | -45.55809 | 39099 ft | 499 kts | 93° |
| 2026-04-30 12:43 | 40.88131 | -45.46659 | 39094 ft | 499 kts | 93° |
| 2026-04-30 12:43 | 40.87707 | -45.37501 | 39098 ft | 499 kts | 93° |
| 2026-04-30 12:44 | 40.87277 | -45.28343 | 39104 ft | 499 kts | 93° |
| 2026-04-30 12:44 | 40.86839 | -45.19202 | 39115 ft | 498 kts | 94° |
| 2026-04-30 12:45 | 40.86395 | -45.10069 | 39103 ft | 498 kts | 94° |
| 2026-04-30 12:45 | 40.85944 | -45.00942 | 39099 ft | 499 kts | 94° |
| 2026-04-30 12:46 | 40.85485 | -44.91800 | 39101 ft | 499 kts | 94° |
| 2026-04-30 12:46 | 40.85018 | -44.82648 | 39095 ft | 499 kts | 94° |
| 2026-04-30 12:47 | 40.84544 | -44.73496 | 39098 ft | 499 kts | 94° |
| 2026-04-30 12:47 | 40.84063 | -44.64359 | 39104 ft | 499 kts | 94° |
| 2026-04-30 12:48 | 40.83575 | -44.55215 | 39093 ft | 499 kts | 94° |
| 2026-04-30 12:48 | 40.83079 | -44.46068 | 39100 ft | 500 kts | 94° |
| 2026-04-30 12:49 | 40.82576 | -44.36920 | 39094 ft | 499 kts | 94° |
| 2026-04-30 12:49 | 40.82066 | -44.27781 | 39095 ft | 499 kts | 94° |
| 2026-04-30 12:50 | 40.81552 | -44.18701 | 39093 ft | 499 kts | 94° |
| 2026-04-30 12:50 | 40.81028 | -44.09564 | 39091 ft | 499 kts | 94° |
| 2026-04-30 12:51 | 40.80497 | -44.00441 | 39097 ft | 499 kts | 94° |
| 2026-04-30 12:51 | 40.79958 | -43.91308 | 39100 ft | 499 kts | 95° |
| 2026-04-30 12:52 | 40.79413 | -43.82188 | 39089 ft | 499 kts | 95° |
| 2026-04-30 12:52 | 40.78857 | -43.73013 | 39085 ft | 499 kts | 95° |
| 2026-04-30 12:53 | 40.78301 | -43.63949 | 39098 ft | 499 kts | 95° |
| 2026-04-30 12:53 | 40.77734 | -43.54835 | 39086 ft | 499 kts | 95° |
| 2026-04-30 12:54 | 40.77159 | -43.45704 | 39087 ft | 499 kts | 95° |
| 2026-04-30 12:54 | 40.76577 | -43.36580 | 39089 ft | 499 kts | 95° |
| 2026-04-30 12:55 | 40.75988 | -43.27456 | 39087 ft | 499 kts | 95° |
| 2026-04-30 12:55 | 40.75392 | -43.18333 | 39089 ft | 499 kts | 95° |
| 2026-04-30 12:56 | 40.74788 | -43.09215 | 39091 ft | 500 kts | 95° |
| 2026-04-30 12:56 | 40.74177 | -43.00086 | 39083 ft | 500 kts | 95° |
| 2026-04-30 12:57 | 40.73557 | -42.90945 | 39086 ft | 501 kts | 95° |
| 2026-04-30 12:57 | 40.72930 | -42.81790 | 39081 ft | 501 kts | 95° |
| 2026-04-30 12:58 | 40.72295 | -42.72640 | 39077 ft | 501 kts | 96° |
| 2026-04-30 12:58 | 40.71653 | -42.63495 | 39081 ft | 501 kts | 96° |
| 2026-04-30 12:59 | 40.71003 | -42.54342 | 39080 ft | 502 kts | 96° |
| 2026-04-30 12:59 | 40.70346 | -42.45185 | 39075 ft | 502 kts | 96° |
| 2026-04-30 13:00 | 40.69682 | -42.36029 | 39077 ft | 502 kts | 96° |
| 2026-04-30 13:00 | 40.69009 | -42.26869 | 39079 ft | 502 kts | 96° |
| 2026-04-30 13:01 | 40.68330 | -42.17720 | 39074 ft | 502 kts | 96° |
| 2026-04-30 13:01 | 40.67643 | -42.08563 | 39079 ft | 502 kts | 96° |
| 2026-04-30 13:02 | 40.66954 | -41.99472 | 39069 ft | 502 kts | 96° |
| 2026-04-30 13:02 | 40.66252 | -41.90309 | 39069 ft | 503 kts | 96° |
| 2026-04-30 13:03 | 40.65544 | -41.81150 | 39063 ft | 503 kts | 96° |
| 2026-04-30 13:03 | 40.64827 | -41.71991 | 39065 ft | 503 kts | 96° |
| 2026-04-30 13:04 | 40.64103 | -41.62832 | 39063 ft | 503 kts | 96° |
| 2026-04-30 13:04 | 40.63372 | -41.53672 | 39062 ft | 503 kts | 96° |
| 2026-04-30 13:05 | 40.62632 | -41.44504 | 39063 ft | 504 kts | 96° |
| 2026-04-30 13:06 | 40.61510 | -41.30752 | 39052 ft | 504 kts | 96° |
| 2026-04-30 13:06 | 40.60752 | -41.21586 | 39052 ft | 504 kts | 97° |
| 2026-04-30 13:07 | 40.59987 | -41.12427 | 39055 ft | 504 kts | 97° |
| 2026-04-30 13:07 | 40.59215 | -41.03260 | 39046 ft | 504 kts | 97° |
| 2026-04-30 13:08 | 40.58435 | -40.94100 | 39043 ft | 504 kts | 97° |
| 2026-04-30 13:08 | 40.57649 | -40.84943 | 39045 ft | 504 kts | 97° |
| 2026-04-30 13:09 | 40.56855 | -40.75793 | 39046 ft | 504 kts | 97° |
| 2026-04-30 13:09 | 40.56054 | -40.66636 | 39039 ft | 504 kts | 97° |
| 2026-04-30 13:10 | 40.55246 | -40.57488 | 39039 ft | 504 kts | 97° |
| 2026-04-30 13:10 | 40.54430 | -40.48333 | 39039 ft | 504 kts | 97° |
| 2026-04-30 13:11 | 40.53612 | -40.39236 | 39040 ft | 504 kts | 97° |
| 2026-04-30 13:11 | 40.52781 | -40.30085 | 39032 ft | 504 kts | 97° |
| 2026-04-30 13:12 | 40.51943 | -40.20933 | 39029 ft | 504 kts | 97° |
| 2026-04-30 13:12 | 40.51099 | -40.11783 | 39029 ft | 504 kts | 97° |
| 2026-04-30 13:13 | 40.50081 | -39.99586 | 39031 ft | 505 kts | 92° |
| 2026-04-30 13:14 | 40.50527 | -39.85783 | 39030 ft | 505 kts | 86° |
| 2026-04-30 13:14 | 40.51170 | -39.71968 | 39018 ft | 505 kts | 86° |
| 2026-04-30 13:15 | 40.51734 | -39.58141 | 39025 ft | 505 kts | 87° |
| 2026-04-30 13:16 | 40.52092 | -39.48921 | 39017 ft | 505 kts | 87° |
| 2026-04-30 13:16 | 40.52444 | -39.39701 | 39016 ft | 505 kts | 87° |
| 2026-04-30 13:17 | 40.52960 | -39.25877 | 39012 ft | 505 kts | 87° |
| 2026-04-30 13:18 | 40.53461 | -39.12045 | 39006 ft | 505 kts | 87° |
| 2026-04-30 13:18 | 40.53945 | -38.98206 | 39012 ft | 505 kts | 87° |
| 2026-04-30 13:19 | 40.54259 | -38.88977 | 39010 ft | 506 kts | 87° |
| 2026-04-30 13:19 | 40.54566 | -38.79737 | 39012 ft | 506 kts | 88° |
| 2026-04-30 13:20 | 40.54863 | -38.70564 | 39006 ft | 506 kts | 88° |
| 2026-04-30 13:20 | 40.55157 | -38.61266 | 39004 ft | 505 kts | 88° |
| 2026-04-30 13:21 | 40.55439 | -38.52095 | 39002 ft | 505 kts | 88° |
| 2026-04-30 13:22 | 40.55852 | -38.38245 | 39008 ft | 505 kts | 88° |
| 2026-04-30 13:22 | 40.56248 | -38.24387 | 39000 ft | 506 kts | 88° |
| 2026-04-30 13:23 | 40.56628 | -38.10520 | 38999 ft | 506 kts | 88° |
| 2026-04-30 13:24 | 40.57109 | -37.92021 | 39000 ft | 506 kts | 88° |
| 2026-04-30 13:25 | 40.57561 | -37.73507 | 38999 ft | 507 kts | 88° |
| 2026-04-30 13:26 | 40.58084 | -37.50344 | 38995 ft | 507 kts | 89° |
| 2026-04-30 13:28 | 40.58561 | -37.27228 | 38992 ft | 507 kts | 89° |
| 2026-04-30 13:28 | 40.58825 | -37.13323 | 38994 ft | 506 kts | 89° |
| 2026-04-30 13:29 | 40.59151 | -36.94820 | 38994 ft | 506 kts | 89° |
| 2026-04-30 13:31 | 40.59516 | -36.71719 | 38988 ft | 505 kts | 89° |
| 2026-04-30 13:32 | 40.59835 | -36.48663 | 38992 ft | 504 kts | 89° |
| 2026-04-30 13:33 | 40.60056 | -36.30253 | 38986 ft | 502 kts | 89° |
| 2026-04-30 13:34 | 40.60202 | -36.16495 | 38985 ft | 501 kts | 89° |
| 2026-04-30 13:35 | 40.60372 | -35.98243 | 38989 ft | 500 kts | 89° |
| 2026-04-30 13:36 | 40.60512 | -35.79945 | 38981 ft | 500 kts | 89° |
| 2026-04-30 13:36 | 40.60599 | -35.66207 | 38981 ft | 501 kts | 89° |
| 2026-04-30 13:37 | 40.60669 | -35.52466 | 38987 ft | 501 kts | 89° |
| 2026-04-30 13:38 | 40.60723 | -35.38706 | 38980 ft | 501 kts | 90° |
| 2026-04-30 13:39 | 40.60770 | -35.20354 | 38981 ft | 501 kts | 90° |
| 2026-04-30 13:40 | 40.60786 | -35.06590 | 38979 ft | 502 kts | 90° |
| 2026-04-30 13:40 | 40.60788 | -34.97405 | 38978 ft | 502 kts | 90° |
| 2026-04-30 13:41 | 40.60782 | -34.88222 | 38979 ft | 502 kts | 90° |
| 2026-04-30 13:41 | 40.60769 | -34.79042 | 38986 ft | 502 kts | 90° |
| 2026-04-30 13:42 | 40.60749 | -34.69865 | 38971 ft | 501 kts | 90° |
| 2026-04-30 13:42 | 40.60705 | -34.56178 | 38975 ft | 501 kts | 90° |
| 2026-04-30 13:43 | 40.60667 | -34.47013 | 38977 ft | 501 kts | 90° |
| 2026-04-30 13:43 | 40.60621 | -34.37849 | 38983 ft | 501 kts | 90° |
| 2026-04-30 13:44 | 40.60569 | -34.28693 | 38980 ft | 500 kts | 90° |
| 2026-04-30 13:44 | 40.60509 | -34.19539 | 38974 ft | 500 kts | 90° |
| 2026-04-30 13:45 | 40.60406 | -34.05820 | 38985 ft | 500 kts | 90° |
| 2026-04-30 13:46 | 40.60328 | -33.96683 | 38967 ft | 499 kts | 90° |
| 2026-04-30 13:46 | 40.60243 | -33.87554 | 38974 ft | 499 kts | 90° |
| 2026-04-30 13:47 | 40.60151 | -33.78418 | 38964 ft | 499 kts | 90° |
| 2026-04-30 13:47 | 40.60051 | -33.69287 | 38966 ft | 499 kts | 90° |
| 2026-04-30 13:48 | 40.59945 | -33.60158 | 38971 ft | 499 kts | 90° |
| 2026-04-30 13:48 | 40.59831 | -33.51042 | 38966 ft | 498 kts | 90° |
| 2026-04-30 13:49 | 40.59711 | -33.41932 | 38949 ft | 498 kts | 90° |
| 2026-04-30 13:49 | 40.59583 | -33.32831 | 38959 ft | 498 kts | 90° |
| 2026-04-30 13:50 | 40.59448 | -33.23722 | 38966 ft | 498 kts | 90° |
| 2026-04-30 13:50 | 40.59232 | -33.10062 | 38958 ft | 498 kts | 91° |
| 2026-04-30 13:51 | 40.59080 | -33.00960 | 38946 ft | 497 kts | 91° |
| 2026-04-30 13:51 | 40.58920 | -32.91866 | 38952 ft | 497 kts | 91° |
| 2026-04-30 13:52 | 40.58753 | -32.82777 | 38954 ft | 497 kts | 90° |
| 2026-04-30 13:52 | 40.58579 | -32.73676 | 38944 ft | 498 kts | 90° |
| 2026-04-30 13:53 | 40.58398 | -32.64569 | 38954 ft | 498 kts | 91° |
| 2026-04-30 13:53 | 40.58209 | -32.55470 | 38942 ft | 498 kts | 91° |
| 2026-04-30 13:54 | 40.58014 | -32.46369 | 38938 ft | 497 kts | 91° |
| 2026-04-30 13:54 | 40.57811 | -32.37282 | 38939 ft | 497 kts | 90° |
| 2026-04-30 13:55 | 40.57602 | -32.28204 | 38920 ft | 497 kts | 90° |
| 2026-04-30 13:55 | 40.57386 | -32.19123 | 38929 ft | 497 kts | 90° |
| 2026-04-30 13:56 | 40.57162 | -32.10027 | 38927 ft | 498 kts | 91° |
| 2026-04-30 13:56 | 40.56930 | -32.00925 | 38929 ft | 498 kts | 90° |
| 2026-04-30 13:57 | 40.56692 | -31.91835 | 38910 ft | 497 kts | 91° |
| 2026-04-30 13:57 | 40.56447 | -31.82769 | 38904 ft | 496 kts | 91° |
| 2026-04-30 13:58 | 40.56069 | -31.69247 | 38906 ft | 496 kts | 90° |
| 2026-04-30 13:59 | 40.55807 | -31.60184 | 38908 ft | 496 kts | 90° |
| 2026-04-30 13:59 | 40.55537 | -31.51114 | 38903 ft | 496 kts | 90° |
| 2026-04-30 14:00 | 40.55261 | -31.42055 | 38900 ft | 496 kts | 90° |
| 2026-04-30 14:00 | 40.54880 | -31.29936 | 38896 ft | 496 kts | 90° |
| 2026-04-30 14:01 | 40.54587 | -31.20885 | 38895 ft | 496 kts | 90° |
| 2026-04-30 14:01 | 40.54287 | -31.11818 | 38882 ft | 497 kts | 91° |
| 2026-04-30 14:02 | 40.53981 | -31.02797 | 38892 ft | 498 kts | 91° |
| 2026-04-30 14:02 | 40.53665 | -30.93686 | 38897 ft | 499 kts | 90° |
| 2026-04-30 14:03 | 40.53341 | -30.84562 | 38886 ft | 500 kts | 90° |
| 2026-04-30 14:03 | 40.53011 | -30.75435 | 38884 ft | 500 kts | 91° |
| 2026-04-30 14:04 | 40.52672 | -30.66314 | 38893 ft | 499 kts | 90° |
| 2026-04-30 14:04 | 40.52325 | -30.57144 | 38881 ft | 499 kts | 90° |
| 2026-04-30 14:05 | 40.51976 | -30.48115 | 38878 ft | 498 kts | 90° |
| 2026-04-30 14:05 | 40.51619 | -30.39034 | 38891 ft | 497 kts | 90° |
| 2026-04-30 14:06 | 40.51070 | -30.25455 | 38873 ft | 495 kts | 90° |
| 2026-04-30 14:07 | 40.50508 | -30.11922 | 38878 ft | 494 kts | 90° |
| 2026-04-30 14:08 | 40.50018 | -29.98424 | 38873 ft | 492 kts | 86° |
| 2026-04-30 14:08 | 40.50582 | -29.84979 | 38876 ft | 492 kts | 83° |
| 2026-04-30 14:09 | 40.50997 | -29.75998 | 38883 ft | 493 kts | 84° |
| 2026-04-30 14:10 | 40.51560 | -29.62527 | 38871 ft | 492 kts | 84° |
| 2026-04-30 14:10 | 40.51913 | -29.53555 | 38885 ft | 491 kts | 85° |
| 2026-04-30 14:11 | 40.52257 | -29.44617 | 38876 ft | 489 kts | 85° |
| 2026-04-30 14:11 | 40.52596 | -29.35701 | 38868 ft | 487 kts | 85° |
| 2026-04-30 14:12 | 40.52927 | -29.26813 | 38873 ft | 486 kts | 85° |
| 2026-04-30 14:12 | 40.53251 | -29.17928 | 38880 ft | 487 kts | 85° |
| 2026-04-30 14:13 | 40.53569 | -29.09036 | 38869 ft | 487 kts | 85° |
| 2026-04-30 14:13 | 40.53881 | -29.00131 | 38875 ft | 488 kts | 85° |
| 2026-04-30 14:14 | 40.54185 | -28.91219 | 38883 ft | 488 kts | 86° |
| 2026-04-30 14:14 | 40.54483 | -28.82301 | 38874 ft | 488 kts | 86° |
| 2026-04-30 14:15 | 40.54773 | -28.73394 | 38884 ft | 488 kts | 86° |
| 2026-04-30 14:15 | 40.55057 | -28.64490 | 38882 ft | 487 kts | 86° |
| 2026-04-30 14:16 | 40.55333 | -28.55592 | 38876 ft | 487 kts | 86° |
| 2026-04-30 14:16 | 40.55603 | -28.46697 | 38875 ft | 487 kts | 86° |
| 2026-04-30 14:17 | 40.55866 | -28.37798 | 38876 ft | 488 kts | 86° |
| 2026-04-30 14:17 | 40.56123 | -28.28877 | 38880 ft | 489 kts | 86° |
| 2026-04-30 14:18 | 40.56373 | -28.19937 | 38879 ft | 490 kts | 86° |
| 2026-04-30 14:18 | 40.56736 | -28.06501 | 38893 ft | 490 kts | 87° |
| 2026-04-30 14:19 | 40.57082 | -27.93123 | 38874 ft | 489 kts | 87° |
| 2026-04-30 14:20 | 40.57305 | -27.84184 | 38874 ft | 489 kts | 87° |
| 2026-04-30 14:20 | 40.57625 | -27.70797 | 38880 ft | 488 kts | 87° |
| 2026-04-30 14:21 | 40.57830 | -27.61877 | 38869 ft | 488 kts | 87° |
| 2026-04-30 14:22 | 40.58126 | -27.48474 | 38876 ft | 489 kts | 87° |
| 2026-04-30 14:22 | 40.58407 | -27.35025 | 38874 ft | 491 kts | 88° |
| 2026-04-30 14:23 | 40.58757 | -27.17047 | 38872 ft | 491 kts | 88° |
| 2026-04-30 14:24 | 40.59002 | -27.03570 | 38868 ft | 491 kts | 88° |
| 2026-04-30 14:25 | 40.59302 | -26.85646 | 38871 ft | 490 kts | 88° |
| 2026-04-30 14:26 | 40.59509 | -26.72216 | 38869 ft | 490 kts | 88° |
| 2026-04-30 14:27 | 40.59702 | -26.58762 | 38871 ft | 494 kts | 89° |
| 2026-04-30 14:27 | 40.59822 | -26.49716 | 38864 ft | 495 kts | 89° |
| 2026-04-30 14:28 | 40.59990 | -26.36127 | 38858 ft | 495 kts | 89° |
| 2026-04-30 14:28 | 40.60092 | -26.27084 | 38860 ft | 493 kts | 89° |
| 2026-04-30 14:29 | 40.60262 | -26.10523 | 38859 ft | 492 kts | 89° |
| 2026-04-30 14:31 | 40.60465 | -25.86569 | 38857 ft | 494 kts | 90° |
| 2026-04-30 14:31 | 40.60559 | -25.72960 | 38848 ft | 498 kts | 90° |
| 2026-04-30 14:32 | 40.60637 | -25.59287 | 38851 ft | 498 kts | 90° |
| 2026-04-30 14:33 | 40.60680 | -25.50178 | 38845 ft | 497 kts | 90° |
| 2026-04-30 14:33 | 40.60731 | -25.36563 | 38849 ft | 495 kts | 90° |
| 2026-04-30 14:34 | 40.60756 | -25.27511 | 38847 ft | 494 kts | 90° |
| 2026-04-30 14:34 | 40.60774 | -25.18461 | 38846 ft | 495 kts | 90° |
| 2026-04-30 14:35 | 40.60788 | -25.04866 | 38844 ft | 496 kts | 90° |
| 2026-04-30 14:36 | 40.60788 | -24.95782 | 38842 ft | 497 kts | 91° |
| 2026-04-30 14:36 | 40.60781 | -24.86687 | 38839 ft | 497 kts | 91° |
| 2026-04-30 14:37 | 40.60767 | -24.77590 | 38841 ft | 497 kts | 91° |
| 2026-04-30 14:37 | 40.60746 | -24.68498 | 38835 ft | 497 kts | 91° |
| 2026-04-30 14:38 | 40.60718 | -24.59409 | 38841 ft | 496 kts | 91° |
| 2026-04-30 14:38 | 40.60683 | -24.50329 | 38837 ft | 496 kts | 91° |
| 2026-04-30 14:39 | 40.60640 | -24.41248 | 38838 ft | 496 kts | 91° |
| 2026-04-30 14:39 | 40.60590 | -24.32179 | 38835 ft | 496 kts | 91° |
| 2026-04-30 14:40 | 40.60503 | -24.18567 | 38834 ft | 496 kts | 91° |
| 2026-04-30 14:40 | 40.60436 | -24.09477 | 38840 ft | 497 kts | 91° |
| 2026-04-30 14:41 | 40.60361 | -24.00373 | 38839 ft | 498 kts | 91° |
| 2026-04-30 14:41 | 40.60279 | -23.91253 | 38839 ft | 498 kts | 92° |
| 2026-04-30 14:42 | 40.60190 | -23.82136 | 38840 ft | 499 kts | 92° |
| 2026-04-30 14:42 | 40.60094 | -23.73076 | 38841 ft | 498 kts | 92° |
| 2026-04-30 14:43 | 40.59991 | -23.63967 | 38838 ft | 498 kts | 92° |
| 2026-04-30 14:43 | 40.59881 | -23.54864 | 38846 ft | 497 kts | 92° |
| 2026-04-30 14:44 | 40.59763 | -23.45759 | 38848 ft | 497 kts | 92° |
| 2026-04-30 14:44 | 40.59660 | -23.38196 | 38839 ft | 497 kts | 92° |
| 2026-04-30 14:45 | 40.59529 | -23.29091 | 38842 ft | 498 kts | 92° |
| 2026-04-30 14:45 | 40.59391 | -23.19990 | 38853 ft | 499 kts | 92° |
| 2026-04-30 14:46 | 40.59246 | -23.10856 | 38858 ft | 499 kts | 92° |
| 2026-04-30 14:46 | 40.59093 | -23.01714 | 38855 ft | 500 kts | 92° |
| 2026-04-30 14:47 | 40.58933 | -22.92565 | 38864 ft | 501 kts | 92° |
| 2026-04-30 14:47 | 40.58766 | -22.83407 | 38871 ft | 501 kts | 92° |
| 2026-04-30 14:48 | 40.58591 | -22.74248 | 38863 ft | 500 kts | 93° |
| 2026-04-30 14:48 | 40.58410 | -22.65117 | 38868 ft | 499 kts | 93° |
| 2026-04-30 14:49 | 40.58221 | -22.55995 | 38872 ft | 498 kts | 93° |
| 2026-04-30 14:49 | 40.58026 | -22.46890 | 38869 ft | 498 kts | 93° |
| 2026-04-30 14:50 | 40.57720 | -22.33244 | 38877 ft | 497 kts | 93° |
| 2026-04-30 14:51 | 40.57398 | -22.19606 | 38880 ft | 498 kts | 93° |
| 2026-04-30 14:52 | 40.57059 | -22.05960 | 38888 ft | 498 kts | 93° |
| 2026-04-30 14:52 | 40.56706 | -21.92365 | 38888 ft | 498 kts | 94° |
| 2026-04-30 14:53 | 40.56336 | -21.78707 | 38888 ft | 498 kts | 94° |
| 2026-04-30 14:54 | 40.55817 | -21.60516 | 38896 ft | 498 kts | 94° |
| 2026-04-30 14:55 | 40.55409 | -21.46873 | 38887 ft | 498 kts | 94° |
| 2026-04-30 14:56 | 40.54839 | -21.28630 | 38904 ft | 500 kts | 94° |
| 2026-04-30 14:57 | 40.54391 | -21.14915 | 38908 ft | 501 kts | 94° |
| 2026-04-30 14:58 | 40.53768 | -20.96620 | 38913 ft | 501 kts | 94° |
| 2026-04-30 14:58 | 40.53282 | -20.82901 | 38917 ft | 501 kts | 94° |
| 2026-04-30 15:00 | 40.52437 | -20.60056 | 38915 ft | 501 kts | 95° |
| 2026-04-30 15:01 | 40.51725 | -20.41716 | 38929 ft | 504 kts | 95° |
| 2026-04-30 15:01 | 40.51171 | -20.27916 | 38928 ft | 505 kts | 95° |
| 2026-04-30 15:02 | 40.50792 | -20.18701 | 38934 ft | 505 kts | 95° |
| 2026-04-30 15:03 | 40.50417 | -19.95713 | 38933 ft | 505 kts | 83° |
| 2026-04-30 15:04 | 40.53269 | -19.72948 | 38937 ft | 505 kts | 82° |
| 2026-04-30 15:06 | 40.55993 | -19.50123 | 38948 ft | 506 kts | 82° |
| 2026-04-30 15:07 | 40.58124 | -19.31906 | 38950 ft | 505 kts | 83° |
| 2026-04-30 15:08 | 40.60234 | -19.13638 | 38954 ft | 505 kts | 83° |
| 2026-04-30 15:09 | 40.62827 | -18.90816 | 38962 ft | 504 kts | 83° |
| 2026-04-30 15:10 | 40.64868 | -18.72549 | 38957 ft | 505 kts | 83° |
| 2026-04-30 15:11 | 40.67892 | -18.44988 | 38967 ft | 508 kts | 83° |
| 2026-04-30 15:13 | 40.70368 | -18.21936 | 38978 ft | 508 kts | 83° |
| 2026-04-30 15:14 | 40.73755 | -17.89670 | 38982 ft | 507 kts | 84° |
| 2026-04-30 15:17 | 40.77966 | -17.48237 | 38995 ft | 506 kts | 84° |
| 2026-04-30 15:19 | 40.81580 | -17.11423 | 38996 ft | 507 kts | 84° |